Time;durP1;ratioP1;P1;durP2;ratioP2;P2;SDS_P1;SDS_P2;PMS_P1;PMS_P2;Temp;Humidity;BMP_temperature;BMP_pressure;BME280_temperature;BME280_humidity;BME280_pressure;Samples;Min_cycle;Max_cycle;Signal;HPM_P1;HPM_P2
2021/09/13 00:00:16;;;;;;;0.40;0.40;;;16.10;99.90;;;;;;4756447;30;20082;-76
2021/09/13 00:02:42;;;;;;;0.10;0.10;;;16.00;99.90;;;;;;4756737;30;20064;-76
2021/09/13 00:05:08;;;;;;;0.20;0.20;;;15.90;99.90;;;;;;4756515;30;20128;-76
2021/09/13 00:07:34;;;;;;;2.17;0.47;;;15.90;99.90;;;;;;4756322;30;20044;-76
2021/09/13 00:10:00;;;;;;;0.20;0.20;;;15.90;99.90;;;;;;4755424;30;20043;-76
2021/09/13 00:12:26;;;;;;;0.20;0.20;;;15.90;99.90;;;;;;4756561;30;20055;-76
2021/09/13 00:14:52;;;;;;;0.30;0.30;;;15.80;99.90;;;;;;4756446;30;20075;-76
2021/09/13 00:17:18;;;;;;;0.13;0.13;;;15.80;99.90;;;;;;4756225;30;20087;-76
2021/09/13 00:19:43;;;;;;;0.20;0.20;;;15.90;99.90;;;;;;4756258;30;20075;-77
2021/09/13 00:22:10;;;;;;;0.10;0.10;;;15.90;99.90;;;;;;4756232;30;20077;-76
2021/09/13 00:24:36;;;;;;;0.10;0.10;;;15.80;99.90;;;;;;4756176;30;20040;-77
2021/09/13 00:27:02;;;;;;;0.10;0.10;;;15.80;99.90;;;;;;4756532;30;20055;-77
2021/09/13 00:29:28;;;;;;;0.20;0.20;;;15.90;99.90;;;;;;4755172;30;20036;-77
2021/09/13 00:31:54;;;;;;;0.10;0.10;;;15.80;99.90;;;;;;4756148;30;20562;-77
2021/09/13 00:34:20;;;;;;;0.10;0.10;;;15.80;99.90;;;;;;4756302;30;20098;-77
2021/09/13 00:36:45;;;;;;;0.20;0.20;;;15.70;99.90;;;;;;4755976;30;20515;-77
2021/09/13 00:39:11;;;;;;;0.10;0.10;;;15.90;99.90;;;;;;4756756;30;20410;-77
2021/09/13 00:41:37;;;;;;;0.28;0.28;;;15.80;99.90;;;;;;4756418;30;20056;-77
2021/09/13 00:44:03;;;;;;;0.30;0.30;;;15.80;99.90;;;;;;4740270;30;20032;-77
2021/09/13 00:46:29;;;;;;;0.38;0.38;;;15.70;99.90;;;;;;4756008;30;20547;-77
2021/09/13 00:48:55;;;;;;;1.55;0.20;;;15.60;99.90;;;;;;4756241;30;20100;-77
2021/09/13 00:51:21;;;;;;;0.10;0.10;;;15.60;99.90;;;;;;4756014;30;20497;-77
2021/09/13 00:53:48;;;;;;;0.10;0.10;;;15.60;99.90;;;;;;4754749;30;20040;-77
2021/09/13 00:56:14;;;;;;;0.10;0.10;;;15.60;99.90;;;;;;4755698;30;20130;-78
2021/09/13 00:58:40;;;;;;;0.10;0.10;;;15.60;99.90;;;;;;4755925;30;20150;-77
2021/09/13 01:01:06;;;;;;;0.20;0.20;;;15.60;99.90;;;;;;4755629;30;20063;-77
2021/09/13 01:03:33;;;;;;;0.10;0.10;;;15.60;99.90;;;;;;4755809;30;20052;-77
2021/09/13 01:05:59;;;;;;;0.20;0.20;;;15.60;99.90;;;;;;4756004;30;20040;-77
2021/09/13 01:08:25;;;;;;;0.10;0.10;;;15.50;99.90;;;;;;4755715;30;20051;-77
2021/09/13 01:10:55;;;;;;;0.10;0.10;;;15.50;99.90;;;;;;4755411;30;20463;-77
2021/09/13 01:13:21;;;;;;;0.52;0.43;;;15.50;99.90;;;;;;4755687;30;20088;-77
2021/09/13 01:15:47;;;;;;;0.20;0.20;;;15.40;99.90;;;;;;4739475;30;20135;-77
2021/09/13 01:18:13;;;;;;;0.28;0.20;;;15.60;99.90;;;;;;4755792;30;20039;-77
2021/09/13 01:20:39;;;;;;;0.20;0.20;;;15.60;99.90;;;;;;4755500;30;20048;-77
2021/09/13 01:23:30;;;;;;;0.22;0.22;;;15.50;99.90;;;;;;4755530;30;20153;-77
2021/09/13 01:25:56;;;;;;;0.30;0.30;;;15.50;99.90;;;;;;4754973;30;20500;-77
2021/09/13 01:28:23;;;;;;;0.15;0.15;;;15.40;99.90;;;;;;4755364;30;20081;-76
2021/09/13 01:30:49;;;;;;;0.10;0.10;;;15.40;99.90;;;;;;4755517;30;20040;-77
2021/09/13 01:33:15;;;;;;;0.22;0.22;;;15.60;99.90;;;;;;4755156;30;20066;-77
2021/09/13 01:35:41;;;;;;;0.28;0.28;;;15.50;99.90;;;;;;4755309;30;20048;-76
2021/09/13 01:38:07;;;;;;;0.13;0.13;;;15.50;99.90;;;;;;4755045;30;20094;-76
2021/09/13 01:40:33;;;;;;;0.10;0.10;;;15.40;99.90;;;;;;4754977;30;20048;-76
2021/09/13 01:43:00;;;;;;;0.10;0.10;;;15.50;99.90;;;;;;4754829;30;20060;-76
2021/09/13 01:45:26;;;;;;;0.10;0.10;;;15.40;99.90;;;;;;4754668;30;20052;-76
2021/09/13 01:47:53;;;;;;;0.20;0.20;;;15.30;99.90;;;;;;4754860;30;20040;-76
2021/09/13 01:50:19;;;;;;;0.20;0.20;;;15.30;99.90;;;;;;4755307;30;20130;-76
2021/09/13 01:52:45;;;;;;;0.10;0.10;;;15.30;99.90;;;;;;4754753;30;20048;-76
2021/09/13 01:55:12;;;;;;;0.10;0.10;;;15.50;99.90;;;;;;4754961;30;20054;-76
2021/09/13 01:57:37;;;;;;;0.20;0.20;;;15.50;99.90;;;;;;4755034;30;20138;-76
2021/09/13 02:00:05;;;;;;;0.10;0.10;;;15.40;99.90;;;;;;4754807;30;20173;-76
2021/09/13 02:02:31;;;;;;;0.10;0.10;;;15.30;99.90;;;;;;4755027;30;20056;-76
2021/09/13 02:04:57;;;;;;;0.20;0.20;;;15.30;99.90;;;;;;4754782;30;20079;-76
2021/09/13 02:07:23;;;;;;;0.30;0.30;;;15.30;99.90;;;;;;4755195;30;20048;-76
2021/09/13 02:09:52;;;;;;;0.15;0.15;;;15.30;99.90;;;;;;4754699;30;20098;-76
2021/09/13 02:12:20;;;;;;;0.10;0.10;;;15.20;99.90;;;;;;4754679;30;20076;-76
2021/09/13 02:14:47;;;;;;;0.10;0.10;;;15.10;99.90;;;;;;4754745;30;20040;-76
2021/09/13 02:17:13;;;;;;;0.38;0.38;;;15.20;99.90;;;;;;4754892;30;20055;-76
2021/09/13 02:19:38;;;;;;;0.20;0.20;;;15.40;99.90;;;;;;4754745;30;20134;-76
2021/09/13 02:22:04;;;;;;;0.17;0.17;;;15.30;99.90;;;;;;4754525;30;20151;-77
2021/09/13 02:24:30;;;;;;;0.10;0.10;;;15.20;99.90;;;;;;4755000;30;20090;-76
2021/09/13 02:26:56;;;;;;;0.10;0.10;;;15.20;99.90;;;;;;4754580;30;20096;-77
2021/09/13 02:29:22;;;;;;;0.40;0.40;;;15.20;99.90;;;;;;4754631;30;20044;-76
2021/09/13 02:31:48;;;;;;;1.55;0.30;;;15.30;99.90;;;;;;4754486;30;20079;-77
2021/09/13 02:34:14;;;;;;;0.20;0.20;;;15.40;99.90;;;;;;4754847;30;20124;-76
2021/09/13 02:36:40;;;;;;;0.22;0.20;;;15.20;99.90;;;;;;4753298;30;20096;-76
2021/09/13 02:39:07;;;;;;;0.10;0.10;;;15.20;99.90;;;;;;4754556;30;20044;-76
2021/09/13 02:41:33;;;;;;;0.10;0.10;;;15.20;99.90;;;;;;4754360;30;20062;-76
2021/09/13 02:43:58;;;;;;;0.10;0.10;;;15.20;99.90;;;;;;4754173;30;20044;-77
2021/09/13 02:46:24;;;;;;;0.20;0.20;;;15.10;99.90;;;;;;4753982;30;20052;-77
2021/09/13 02:48:50;;;;;;;0.10;0.10;;;15.10;99.90;;;;;;4754663;30;20489;-76
2021/09/13 02:51:16;;;;;;;0.10;0.10;;;15.00;99.90;;;;;;4754327;30;20051;-76
2021/09/13 02:53:42;;;;;;;0.20;0.20;;;14.90;99.90;;;;;;4754326;30;20105;-76
2021/09/13 02:56:07;;;;;;;0.10;0.10;;;14.90;99.90;;;;;;4753900;30;20485;-77
2021/09/13 02:58:33;;;;;;;0.57;0.20;;;15.00;99.90;;;;;;4754011;30;20070;-76
2021/09/13 03:00:59;;;;;;;0.10;0.10;;;15.10;99.90;;;;;;4754036;30;20054;-77
2021/09/13 03:03:25;;;;;;;0.10;0.10;;;15.00;99.90;;;;;;4753903;30;20044;-77
2021/09/13 03:05:52;;;;;;;0.10;0.10;;;15.00;99.90;;;;;;4753701;30;20060;-76
2021/09/13 03:08:18;;;;;;;0.10;0.10;;;15.00;99.90;;;;;;4753929;30;20132;-77
2021/09/13 03:10:44;;;;;;;0.20;0.20;;;14.90;99.90;;;;;;4752446;30;20044;-76
2021/09/13 03:13:10;;;;;;;0.20;0.20;;;14.90;99.90;;;;;;4753146;30;20036;-77
2021/09/13 03:15:36;;;;;;;0.20;0.20;;;14.90;99.90;;;;;;4753495;30;20052;-76
2021/09/13 03:18:02;;;;;;;0.20;0.20;;;15.00;99.90;;;;;;4753565;30;20175;-77
2021/09/13 03:20:28;;;;;;;2.60;0.20;;;14.90;99.90;;;;;;4753778;30;20125;-76
2021/09/13 03:22:54;;;;;;;0.22;0.20;;;14.90;99.90;;;;;;4753694;30;20082;-76
2021/09/13 03:25:20;;;;;;;0.10;0.10;;;14.80;99.90;;;;;;4753726;30;20048;-76
2021/09/13 03:27:45;;;;;;;0.10;0.10;;;14.90;99.90;;;;;;4753773;30;20047;-76
2021/09/13 03:30:12;;;;;;;0.30;0.30;;;14.80;99.90;;;;;;4753785;30;20047;-76
2021/09/13 03:32:38;;;;;;;0.10;0.10;;;14.80;99.90;;;;;;4752337;30;20040;-76
2021/09/13 03:35:05;;;;;;;1.05;0.28;;;14.90;99.90;;;;;;4753614;30;20056;-76
2021/09/13 03:37:31;;;;;;;0.10;0.10;;;14.80;99.90;;;;;;4753438;30;20051;-76
2021/09/13 03:39:56;;;;;;;0.10;0.10;;;14.80;99.90;;;;;;4752376;30;20400;-76
2021/09/13 03:42:22;;;;;;;0.20;0.20;;;14.80;99.90;;;;;;4753457;30;20481;-76
2021/09/13 03:44:48;;;;;;;0.10;0.10;;;14.80;99.90;;;;;;4753373;30;20059;-76
2021/09/13 03:47:14;;;;;;;0.10;0.10;;;14.90;99.90;;;;;;4753418;30;20434;-76
2021/09/13 03:49:40;;;;;;;0.10;0.10;;;14.90;99.90;;;;;;4753509;30;20044;-76
2021/09/13 03:52:08;;;;;;;0.10;0.10;;;14.90;99.90;;;;;;4753506;30;20584;-76
2021/09/13 03:54:37;;;;;;;0.10;0.10;;;14.80;99.90;;;;;;4753167;30;20052;-76
2021/09/13 03:57:04;;;;;;;0.20;0.20;;;14.70;99.90;;;;;;4753490;30;20217;-76
2021/09/13 03:59:31;;;;;;;0.10;0.10;;;14.60;99.90;;;;;;4754455;30;20061;-76
2021/09/13 04:01:58;;;;;;;0.30;0.30;;;14.60;99.90;;;;;;4753169;30;20509;-78
2021/09/13 04:04:29;;;;;;;0.20;0.20;;;14.50;99.90;;;;;;4753665;30;20512;-77
2021/09/13 04:07:17;;;;;;;0.10;0.10;;;14.50;99.90;;;;;;4753968;30;20048;-77
2021/09/13 04:12:07;;;;;;;0.20;0.20;;;14.60;99.90;;;;;;4753511;30;20358;-77
2021/09/13 04:14:33;;;;;;;0.25;0.25;;;14.50;99.90;;;;;;4753827;30;20050;-77
2021/09/13 04:16:59;;;;;;;0.10;0.10;;;14.50;99.90;;;;;;4753713;30;20040;-77
2021/09/13 04:19:25;;;;;;;0.20;0.20;;;14.50;99.90;;;;;;4752432;30;20044;-77
2021/09/13 04:21:56;;;;;;;0.10;0.10;;;14.50;99.90;;;;;;4753180;30;20501;-77
2021/09/13 04:24:22;;;;;;;;;;;14.60;99.90;;;;;;4756037;30;20078;-77
2021/09/13 04:26:48;;;;;;;0.10;0.10;;;14.50;99.90;;;;;;4756613;30;19914;-77
2021/09/13 04:29:14;;;;;;;0.20;0.20;;;14.50;99.90;;;;;;4756714;30;20068;-77
2021/09/13 04:31:40;;;;;;;0.10;0.10;;;14.50;99.90;;;;;;4756199;30;20136;-77
2021/09/13 04:34:06;;;;;;;0.20;0.20;;;14.50;99.90;;;;;;4756603;30;20048;-76
2021/09/13 04:36:32;;;;;;;0.20;0.20;;;14.50;99.90;;;;;;4755512;30;20529;-78
2021/09/13 04:38:58;;;;;;;0.10;0.10;;;14.50;99.90;;;;;;4755645;30;20078;-74
2021/09/13 04:41:24;;;;;;;0.22;0.22;;;14.50;99.90;;;;;;4754475;30;20490;-77
2021/09/13 04:43:49;;;;;;;0.10;0.10;;;14.50;99.90;;;;;;4754141;30;20045;-77
2021/09/13 04:46:15;;;;;;;0.35;0.35;;;14.50;99.90;;;;;;4754155;30;20131;-77
2021/09/13 04:48:42;;;;;;;0.10;0.10;;;14.40;99.90;;;;;;4760796;30;20054;-77
2021/09/13 04:51:07;;;;;;;0.10;0.10;;;14.40;99.90;;;;;;4757559;30;20052;-77
2021/09/13 04:53:33;;;;;;;0.15;0.15;;;14.30;99.90;;;;;;4753920;30;20040;-77
2021/09/13 04:55:59;;;;;;;0.32;0.32;;;14.30;99.90;;;;;;4739334;30;20501;-78
2021/09/13 04:58:25;;;;;;;0.20;0.20;;;14.40;99.90;;;;;;4755612;30;20064;-77
2021/09/13 05:00:51;;;;;;;0.20;0.20;;;14.40;99.90;;;;;;4754613;30;20043;-77
2021/09/13 05:03:17;;;;;;;0.10;0.10;;;14.40;99.90;;;;;;4755791;30;20389;-78
2021/09/13 05:05:43;;;;;;;0.15;0.15;;;14.40;99.90;;;;;;4740469;30;20130;-78
2021/09/13 05:08:09;;;;;;;0.17;0.17;;;14.30;99.90;;;;;;4755411;30;20098;-78
2021/09/13 05:10:34;;;;;;;0.30;0.30;;;14.40;99.90;;;;;;4739232;30;20568;-78
2021/09/13 05:13:00;;;;;;;0.30;0.30;;;14.40;99.90;;;;;;4755038;30;20131;-78
2021/09/13 05:15:26;;;;;;;0.20;0.20;;;14.40;99.90;;;;;;4755044;30;20093;-78
2021/09/13 05:17:52;;;;;;;0.20;0.20;;;14.30;99.90;;;;;;4755297;30;20047;-78
2021/09/13 05:20:18;;;;;;;0.10;0.10;;;14.30;99.90;;;;;;4755324;30;20048;-78
2021/09/13 05:22:45;;;;;;;0.10;0.10;;;14.30;99.90;;;;;;4755762;30;20052;-75
2021/09/13 05:25:11;;;;;;;0.10;0.10;;;14.30;99.90;;;;;;4755028;30;20099;-78
2021/09/13 05:27:37;;;;;;;0.10;0.10;;;14.30;99.90;;;;;;4753947;30;20082;-76
2021/09/13 05:30:04;;;;;;;0.10;0.10;;;14.30;99.90;;;;;;4753642;30;20043;-77
2021/09/13 05:32:30;;;;;;;0.10;0.10;;;14.30;99.90;;;;;;4754757;30;20064;-77
2021/09/13 05:34:56;;;;;;;0.20;0.20;;;14.30;99.90;;;;;;4753874;30;20060;-75
2021/09/13 05:37:22;;;;;;;0.10;0.10;;;14.30;99.90;;;;;;4755172;30;20044;-84
2021/09/13 05:39:48;;;;;;;0.10;0.10;;;14.30;99.90;;;;;;4737498;30;20126;-84
2021/09/13 05:42:14;;;;;;;0.10;0.10;;;14.40;99.90;;;;;;4738508;30;20405;-84
2021/09/13 05:44:41;;;;;;;0.45;0.43;;;14.50;99.90;;;;;;4738010;30;20071;-85
2021/09/13 05:47:07;;;;;;;0.10;0.10;;;14.50;99.90;;;;;;4755791;30;20048;-84
2021/09/13 05:49:33;;;;;;;0.32;0.32;;;14.40;99.90;;;;;;4754849;30;20563;-84
2021/09/13 05:51:59;;;;;;;0.15;0.15;;;14.50;99.90;;;;;;4755290;30;20040;-84
2021/09/13 05:54:25;;;;;;;0.20;0.20;;;14.50;99.90;;;;;;4753836;30;20040;-84
2021/09/13 05:56:55;;;;;;;0.10;0.10;;;14.60;99.90;;;;;;4754544;30;20056;-85
2021/09/13 05:59:23;;;;;;;0.20;0.20;;;14.60;99.90;;;;;;4739109;30;20067;-84
2021/09/13 06:01:50;;;;;;;0.20;0.20;;;14.60;99.90;;;;;;4738892;30;20083;-84
2021/09/13 06:04:16;;;;;;;0.10;0.10;;;14.60;99.90;;;;;;4755085;30;20055;-84
2021/09/13 06:06:42;;;;;;;0.10;0.10;;;14.60;99.90;;;;;;4739053;30;20044;-84
2021/09/13 06:09:09;;;;;;;0.10;0.10;;;14.60;99.90;;;;;;4739286;30;20036;-84
2021/09/13 06:11:35;;;;;;;0.10;0.10;;;14.60;99.90;;;;;;4754948;30;20075;-84
2021/09/13 06:14:01;;;;;;;0.45;0.25;;;14.70;99.90;;;;;;4738915;30;20079;-84
2021/09/13 06:16:27;;;;;;;0.20;0.20;;;15.00;99.90;;;;;;4754731;30;20110;-84
2021/09/13 06:18:53;;;;;;;0.10;0.10;;;15.10;99.90;;;;;;4754897;30;20043;-85
2021/09/13 06:21:19;;;;;;;0.10;0.10;;;15.40;99.90;;;;;;4755116;30;20146;-85
2021/09/13 06:23:46;;;;;;;0.38;0.38;;;15.50;99.90;;;;;;4755010;30;20127;-84
2021/09/13 06:26:13;;;;;;;0.17;0.17;;;15.70;99.90;;;;;;4754780;30;20036;-85
2021/09/13 06:28:39;;;;;;;0.20;0.20;;;15.70;99.90;;;;;;4739544;30;20043;-85
2021/09/13 06:31:05;;;;;;;0.28;0.22;;;15.70;99.90;;;;;;4738495;30;20337;-84
2021/09/13 06:33:32;;;;;;;0.30;0.30;;;15.80;99.90;;;;;;4738658;30;20040;-85
2021/09/13 06:35:58;;;;;;;0.10;0.10;;;15.50;99.90;;;;;;4738846;30;20040;-83
2021/09/13 06:38:24;;;;;;;0.20;0.20;;;15.50;99.90;;;;;;4739201;30;20036;-84
2021/09/13 06:40:50;;;;;;;0.20;0.20;;;15.60;99.90;;;;;;4754500;30;20497;-83
2021/09/13 06:43:17;;;;;;;0.28;0.28;;;15.70;99.90;;;;;;4738562;30;20070;-84
2021/09/13 06:45:45;;;;;;;0.10;0.10;;;15.90;99.90;;;;;;4752912;30;20044;-83
2021/09/13 06:48:15;;;;;;;0.85;0.30;;;16.00;99.90;;;;;;4753705;30;20131;-84
2021/09/13 06:50:44;;;;;;;0.20;0.20;;;16.10;99.90;;;;;;4738336;30;20469;-83
2021/09/13 06:53:10;;;;;;;0.10;0.10;;;16.30;99.90;;;;;;4738393;30;20040;-84
2021/09/13 06:55:37;;;;;;;0.10;0.10;;;16.40;99.90;;;;;;4738503;30;20040;-84
2021/09/13 06:58:06;;;;;;;0.10;0.10;;;16.30;99.90;;;;;;4737828;30;20052;-84
2021/09/13 07:00:32;;;;;;;0.20;0.20;;;16.40;99.90;;;;;;4737872;30;20047;-85
2021/09/13 07:02:59;;;;;;;0.10;0.10;;;16.70;99.90;;;;;;4737923;30;20059;-85
2021/09/13 07:05:26;;;;;;;0.30;0.30;;;17.00;99.90;;;;;;4752730;30;20040;-85
2021/09/13 07:07:52;;;;;;;0.20;0.20;;;17.20;99.90;;;;;;4738790;30;20047;-84
2021/09/13 07:10:18;;;;;;;0.90;0.50;;;17.40;99.90;;;;;;4754017;30;20071;-84
2021/09/13 07:12:46;;;;;;;0.10;0.10;;;17.40;96.30;;;;;;4737884;30;20098;-84
2021/09/13 07:15:11;;;;;;;0.52;0.52;;;17.50;94.70;;;;;;4737209;30;20397;-84
2021/09/13 07:17:38;;;;;;;0.20;0.20;;;17.90;90.70;;;;;;4752531;30;20047;-82
2021/09/13 07:20:04;;;;;;;0.40;0.40;;;18.20;63.80;;;;;;4744385;30;20047;-83
2021/09/13 07:22:30;;;;;;;0.35;0.32;;;18.10;63.50;;;;;;4769838;30;20055;-85
2021/09/13 07:24:56;;;;;;;0.30;0.30;;;18.10;75.60;;;;;;4753382;30;20404;-86
2021/09/13 07:27:22;;;;;;;0.22;0.22;;;18.20;80.30;;;;;;4754423;30;20044;-85
2021/09/13 07:29:48;;;;;;;0.20;0.20;;;18.40;75.90;;;;;;4770986;30;20040;-85
2021/09/13 07:32:13;;;;;;;0.20;0.20;;;18.50;58.30;;;;;;4770809;30;20058;-84
2021/09/13 07:34:39;;;;;;;0.10;0.10;;;18.50;63.40;;;;;;4761811;30;20374;-85
2021/09/13 07:37:05;;;;;;;0.20;0.20;;;18.60;67.60;;;;;;4736798;30;20044;-85
2021/09/13 07:39:31;;;;;;;0.20;0.20;;;18.90;46.20;;;;;;4751825;30;20036;-85
2021/09/13 07:41:58;;;;;;;0.17;0.17;;;19.10;38.90;;;;;;4737340;30;20052;-84
2021/09/13 07:44:24;;;;;;;0.30;0.30;;;18.90;57.60;;;;;;4753161;30;20040;-84
2021/09/13 07:46:52;;;;;;;0.10;0.10;;;18.80;69.80;;;;;;4737427;30;20044;-82
2021/09/13 07:49:19;;;;;;;0.10;0.10;;;18.80;75.50;;;;;;4753171;30;20036;-82
2021/09/13 07:51:46;;;;;;;0.10;0.10;;;19.00;63.90;;;;;;4753477;30;20040;-82
2021/09/13 07:54:11;;;;;;;0.30;0.30;;;19.40;41.10;;;;;;4752266;30;20040;-82
2021/09/13 07:56:37;;;;;;;0.10;0.10;;;19.70;39.70;;;;;;4753256;30;20470;-76
2021/09/13 07:59:03;;;;;;;0.30;0.30;;;20.00;26.00;;;;;;4755137;30;20101;-83
2021/09/13 08:01:32;;;;;;;0.10;0.10;;;20.10;22.00;;;;;;4756547;30;20113;-85
2021/09/13 08:03:58;;;;;;;0.20;0.20;;;20.30;16.00;;;;;;4769427;30;20104;-85
2021/09/13 08:06:24;;;;;;;0.15;0.15;;;20.40;16.50;;;;;;4757201;30;20500;-84
2021/09/13 08:08:51;;;;;;;0.22;0.22;;;20.50;9.60;;;;;;4773912;30;20036;-85
2021/09/13 08:11:17;;;;;;;0.47;0.47;;;20.70;7.30;;;;;;4772825;30;20181;-84
2021/09/13 08:13:43;;;;;;;0.20;0.20;;;20.80;16.70;;;;;;4772361;30;20536;-84
2021/09/13 08:16:10;;;;;;;0.65;0.38;;;20.70;16.60;;;;;;4773708;30;20039;-84
2021/09/13 08:18:38;;;;;;;0.10;0.10;;;20.60;27.50;;;;;;4773801;30;20070;-83
2021/09/13 08:21:05;;;;;;;0.10;0.10;;;20.70;20.60;;;;;;4757168;30;20043;-83
2021/09/13 08:23:34;;;;;;;0.65;0.65;;;20.70;21.30;;;;;;4772844;30;20496;-79
2021/09/13 08:26:05;;;;;;;0.13;0.13;;;20.90;21.20;;;;;;4771927;30;20056;-80
2021/09/13 08:28:32;;;;;;;0.40;0.40;;;20.90;5.60;;;;;;4772079;30;20045;-77
2021/09/13 08:30:58;;;;;;;1.23;0.30;;;21.00;6.00;;;;;;4771973;30;20086;-75
2021/09/13 08:33:24;;;;;;;0.10;0.10;;;21.00;11.80;;;;;;4772492;30;20080;-75
2021/09/13 08:35:53;;;;;;;0.10;0.10;;;21.00;17.40;;;;;;4773300;30;20051;-74
2021/09/13 08:38:19;;;;;;;0.30;0.30;;;20.90;20.30;;;;;;4773789;30;20042;-75
2021/09/13 08:40:46;;;;;;;0.20;0.20;;;20.90;9.10;;;;;;4773977;30;20044;-75
2021/09/13 08:43:12;;;;;;;0.20;0.20;;;20.90;12.50;;;;;;4773884;30;20083;-74
2021/09/13 08:48:13;;;;;;;0.20;0.20;;;20.60;21.30;;;;;;4774487;30;20416;-75
2021/09/13 08:51:04;;;;;;;0.10;0.10;;;20.50;32.50;;;;;;4773320;30;20048;-76
2021/09/13 08:53:32;;;;;;;0.20;0.20;;;20.30;50.40;;;;;;4773258;30;20047;-76
2021/09/13 08:56:02;;;;;;;0.10;0.10;;;20.10;62.80;;;;;;4773154;30;20051;-76
2021/09/13 08:58:28;;;;;;;0.20;0.20;;;20.00;37.80;;;;;;4774378;30;20168;-76
2021/09/13 09:00:55;;;;;;;0.35;0.35;;;20.00;43.70;;;;;;4773798;30;20079;-76
2021/09/13 09:03:22;;;;;;;0.20;0.20;;;20.10;15.00;;;;;;4773932;30;20133;-76
2021/09/13 09:05:53;;;;;;;0.28;0.28;;;20.30;12.40;;;;;;4773467;30;20055;-76
2021/09/13 09:08:30;;;;;;;0.22;0.22;;;20.40;7.60;;;;;;4771966;30;20096;-77
2021/09/13 09:11:01;;;;;;;0.30;0.30;;;20.50;16.50;;;;;;4770094;30;20068;-77
2021/09/13 09:13:43;;;;;;;0.22;0.22;;;20.40;26.00;;;;;;4770870;30;20408;-77
2021/09/13 09:16:14;;;;;;;0.25;0.25;;;20.30;26.90;;;;;;4770741;30;20131;-76
2021/09/13 09:18:48;;;;;;;0.20;0.20;;;20.40;23.70;;;;;;4770950;30;20408;-76
2021/09/13 09:21:29;;;;;;;0.10;0.10;;;20.50;28.50;;;;;;4772235;30;20096;-75
2021/09/13 09:24:03;;;;;;;0.20;0.20;;;20.70;29.80;;;;;;4773188;30;20054;-75
2021/09/13 09:26:30;;;;;;;0.20;0.20;;;20.90;24.30;;;;;;4773517;30;20047;-75
2021/09/13 09:28:58;;;;;;;0.15;0.15;;;20.90;20.90;;;;;;4773699;30;20051;-75
2021/09/13 09:31:40;;;;;;;0.30;0.30;;;20.90;28.30;;;;;;4773253;30;20043;-75
2021/09/13 09:34:14;;;;;;;0.20;0.20;;;20.80;27.90;;;;;;4773109;30;20126;-75
2021/09/13 09:36:40;;;;;;;0.10;0.10;;;21.20;14.90;;;;;;4772547;30;20043;-75
2021/09/13 09:39:12;;;;;;;0.38;0.38;;;21.50;12.50;;;;;;4772958;30;20047;-75
2021/09/13 09:41:44;;;;;;;0.20;0.20;;;21.70;1.00;;;;;;4773167;30;20071;-75
2021/09/13 09:44:10;;;;;;;0.25;0.25;;;21.90;1.00;;;;;;4773261;30;20054;-75
2021/09/13 09:46:41;;;;;;;0.10;0.10;;;22.20;1.00;;;;;;4772132;30;20040;-74
2021/09/13 09:49:09;;;;;;;0.20;0.20;;;22.30;1.00;;;;;;4772684;30;20044;-74
2021/09/13 09:51:38;;;;;;;0.20;0.20;;;22.30;1.00;;;;;;4772940;30;20058;-75
2021/09/13 09:54:12;;;;;;;0.63;0.63;;;22.50;1.00;;;;;;4772207;30;20048;-72
2021/09/13 09:56:39;;;;;;;0.28;0.28;;;22.60;1.00;;;;;;4754875;30;20108;-75
2021/09/13 09:59:07;;;;;;;0.20;0.20;;;22.70;1.00;;;;;;4771588;30;20190;-76
2021/09/13 10:01:39;;;;;;;0.28;0.28;;;23.00;1.00;;;;;;4771495;30;20066;-76
2021/09/13 10:04:19;;;;;;;0.50;0.50;;;22.90;1.00;;;;;;4772667;30;20047;-76
2021/09/13 10:06:59;;;;;;;0.10;0.10;;;22.90;1.00;;;;;;4772492;30;20089;-73
2021/09/13 10:09:29;;;;;;;0.10;0.10;;;22.80;1.00;;;;;;4772115;30;20054;-77
2021/09/13 10:12:04;;;;;;;0.35;0.35;;;23.00;1.00;;;;;;4770683;30;20052;-77
2021/09/13 10:14:33;;;;;;;1.38;0.60;;;23.40;1.00;;;;;;4770283;30;20731;-73
2021/09/13 10:16:59;;;;;;;0.20;0.20;;;23.60;1.00;;;;;;4771223;30;20047;-71
2021/09/13 10:19:29;;;;;;;0.75;0.75;;;23.70;1.00;;;;;;4771415;30;20052;-73
2021/09/13 10:21:56;;;;;;;0.20;0.20;;;23.50;1.00;;;;;;4771668;30;20535;-73
2021/09/13 10:24:30;;;;;;;1.17;0.70;;;23.20;1.00;;;;;;4771945;30;20039;-74
2021/09/13 10:27:08;;;;;;;0.30;0.30;;;23.00;1.00;;;;;;4772202;30;20081;-75
2021/09/13 10:29:35;;;;;;;0.32;0.32;;;22.90;1.00;;;;;;4772738;30;20507;-76
2021/09/13 10:32:10;;;;;;;0.55;0.55;;;22.80;1.00;;;;;;4771977;30;20051;-79
2021/09/13 10:34:51;;;;;;;0.57;0.57;;;22.90;4.70;;;;;;4772103;30;20500;-75
2021/09/13 10:37:21;;;;;;;0.50;0.50;;;23.10;7.20;;;;;;4771983;30;20493;-74
2021/09/13 10:40:02;;;;;;;1.65;1.15;;;23.10;1.00;;;;;;4771735;30;20036;-73
2021/09/13 10:42:42;;;;;;;1.35;0.82;;;22.90;1.70;;;;;;4771823;30;20055;-74
2021/09/13 10:45:48;;;;;;;0.52;0.52;;;23.00;1.00;;;;;;4772022;30;20044;-74
2021/09/13 10:48:19;;;;;;;1.00;0.82;;;23.10;1.00;;;;;;4752342;30;20067;-75
2021/09/13 10:50:50;;;;;;;0.77;0.77;;;23.00;7.20;;;;;;4752147;30;20625;-76
2021/09/13 10:53:22;;;;;;;0.30;0.30;;;23.10;12.60;;;;;;4761900;30;20043;-78
2021/09/13 10:55:56;;;;;;;1.17;0.52;;;23.10;7.50;;;;;;4772068;30;20074;-75
2021/09/13 10:58:44;;;;;;;3.33;0.50;;;23.00;11.10;;;;;;4772397;30;20142;-74
2021/09/13 11:01:13;;;;;;;0.50;0.50;;;23.10;14.10;;;;;;4771775;30;20047;-76
2021/09/13 11:03:42;;;;;;;0.75;0.55;;;23.20;5.10;;;;;;4771730;30;20044;-75
2021/09/13 11:06:08;;;;;;;0.93;0.90;;;23.20;8.80;;;;;;4772116;30;20040;-74
2021/09/13 11:08:55;;;;;;;0.95;0.95;;;23.10;11.10;;;;;;4771358;30;20039;-76
2021/09/13 11:11:31;;;;;;;0.30;0.30;;;22.90;18.50;;;;;;4771321;30;20047;-77
2021/09/13 11:14:06;;;;;;;1.30;0.63;;;23.00;18.30;;;;;;4771677;30;20105;-75
2021/09/13 11:16:49;;;;;;;0.40;0.40;;;23.20;9.40;;;;;;4771389;30;20071;-80
2021/09/13 11:19:17;;;;;;;0.40;0.40;;;23.50;1.20;;;;;;4771743;30;20189;-74
2021/09/13 11:21:46;;;;;;;0.43;0.43;;;23.70;1.00;;;;;;4774198;30;20536;-74
2021/09/13 11:24:20;;;;;;;0.30;0.30;;;24.10;1.00;;;;;;4774106;30;20047;-75
2021/09/13 11:26:48;;;;;;;0.47;0.47;;;24.40;1.00;;;;;;4771961;30;20137;-74
2021/09/13 11:29:26;;;;;;;0.50;0.50;;;24.70;1.00;;;;;;4771973;30;20043;-77
2021/09/13 11:32:00;;;;;;;0.63;0.52;;;25.00;1.00;;;;;;4771624;30;20043;-75
2021/09/13 11:34:30;;;;;;;0.85;0.85;;;24.90;1.00;;;;;;4774072;30;20058;-77
2021/09/13 11:37:16;;;;;;;0.35;0.35;;;24.90;1.00;;;;;;4775381;30;20577;-76
2021/09/13 11:39:46;;;;;;;1.85;0.88;;;24.60;1.00;;;;;;4775013;30;20040;-77
2021/09/13 11:42:14;;;;;;;0.40;0.40;;;24.70;1.00;;;;;;4775012;30;20653;-82
2021/09/13 11:44:43;;;;;;;0.68;0.68;;;24.70;1.00;;;;;;4759214;30;20052;-73
2021/09/13 11:47:10;;;;;;;0.60;0.60;;;24.40;1.00;;;;;;4774832;30;20047;-74
2021/09/13 11:49:38;;;;;;;0.60;0.60;;;24.30;1.00;;;;;;4774815;30;20101;-77
2021/09/13 11:52:19;;;;;;;0.95;0.90;;;24.20;1.00;;;;;;4774823;30;20067;-72
2021/09/13 11:54:49;;;;;;;0.60;0.60;;;24.50;1.00;;;;;;4775565;30;20055;-77
2021/09/13 11:57:24;;;;;;;0.55;0.50;;;24.60;1.00;;;;;;4775280;30;20056;-76
2021/09/13 11:59:58;;;;;;;0.68;0.68;;;24.90;1.00;;;;;;4774858;30;20042;-74
2021/09/13 12:02:25;;;;;;;1.50;0.63;;;24.80;1.00;;;;;;4773384;30;20083;-73
2021/09/13 12:04:53;;;;;;;1.38;1.00;;;24.90;1.00;;;;;;4774485;30;20412;-76
2021/09/13 12:07:19;;;;;;;0.50;0.50;;;24.70;1.00;;;;;;4774752;30;20082;-75
2021/09/13 12:09:48;;;;;;;0.88;0.75;;;24.70;1.00;;;;;;4774832;30;20036;-74
2021/09/13 12:12:18;;;;;;;0.82;0.82;;;24.70;1.00;;;;;;4774600;30;20052;-78
2021/09/13 12:14:45;;;;;;;0.50;0.50;;;24.70;1.00;;;;;;4773534;30;20591;-78
2021/09/13 12:17:14;;;;;;;0.98;0.88;;;24.70;1.00;;;;;;4774708;30;20058;-76
2021/09/13 12:19:43;;;;;;;0.57;0.52;;;24.60;1.00;;;;;;4774590;30;20048;-77
2021/09/13 12:22:11;;;;;;;4.45;1.38;;;24.50;1.00;;;;;;4774767;30;20062;-76
2021/09/13 12:24:39;;;;;;;0.80;0.80;;;24.40;1.00;;;;;;4774533;30;20093;-77
2021/09/13 12:27:12;;;;;;;0.50;0.50;;;24.30;1.00;;;;;;4774699;30;20047;-79
2021/09/13 12:30:16;;;;;;;0.55;0.55;;;24.30;1.00;;;;;;4774502;30;20518;-76
2021/09/13 12:32:49;;;;;;;0.55;0.55;;;24.40;1.00;;;;;;4763829;30;20104;-75
2021/09/13 12:35:15;;;;;;;0.77;0.77;;;24.30;1.00;;;;;;4774258;30;20123;-76
2021/09/13 12:37:41;;;;;;;0.57;0.57;;;24.30;1.00;;;;;;4774239;30;20458;-78
2021/09/13 12:40:10;;;;;;;0.77;0.77;;;24.20;1.00;;;;;;4774350;30;20050;-76
2021/09/13 12:42:53;;;;;;;1.00;1.00;;;24.00;1.00;;;;;;4774101;30;20062;-79
2021/09/13 12:45:22;;;;;;;0.30;0.30;;;24.20;1.00;;;;;;4774081;30;20124;-78
2021/09/13 12:48:03;;;;;;;0.40;0.40;;;24.30;2.50;;;;;;4774196;30;20047;-76
2021/09/13 12:50:30;;;;;;;1.08;0.57;;;24.10;1.20;;;;;;4774439;30;20043;-77
2021/09/13 12:52:58;;;;;;;1.55;1.20;;;24.00;5.80;;;;;;4774172;30;20082;-78
2021/09/13 12:55:25;;;;;;;0.63;0.63;;;24.00;1.00;;;;;;4774004;30;20042;-76
2021/09/13 12:57:51;;;;;;;0.40;0.40;;;24.20;5.40;;;;;;4773961;30;20066;-78
2021/09/13 13:00:18;;;;;;;0.77;0.77;;;24.30;1.00;;;;;;4773599;30;20531;-76